Plymouth, CT (06782)

2:55 AM EST on February 09, 2016 (GMT -0500)
Plymouth, CT | | Change Station
CLOSE
Current Station
Personal Weather Station
Location: Plymouth, CT
Elevation: 810 ft
Nearby Weather Stations

Elev 810 ft 41.66 °N, 73.05 °W | Updated 1 minute ago

Overcast
Overcast
19.2 °F
Feels Like 19 °F
N
0.0
Wind Variable Wind from North

Today
High -- | Low -- °F
--% Chance of Precip.
Yesterday
High -- | Low -- °F
Precip. -- in
Pressure 29.71 in
Visibility 3.0 miles
Clouds Scattered Clouds 1000 ft
Mostly Cloudy 3200 ft
Overcast 4200 ft
Windchill 19 °F
Dew Point 18 °F
Humidity 93%
Rainfall 0.00 in
Snow Depth Not available.
6:55 AM 5:17 PM
New Moon, 1% visible
METAR KOXC 090735Z 07004KT 3SM SCT010 BKN032 OVC042 M06/M12 A2971 RMK AO1
Pressure 29.71 in
Visibility 3.0 miles
Clouds Scattered Clouds 1000 ft
Mostly Cloudy 3200 ft
Overcast 4200 ft
Windchill 19 °F
Dew Point 18 °F
Humidity 93%
Rainfall 0.00 in
Snow Depth Not available.
6:55 AM 5:17 PM
New Moon, 1% visible
METAR KOXC 090735Z 07004KT 3SM SCT010 BKN032 OVC042 M06/M12 A2971 RMK AO1

10-Day Weather Forecast

Almanac

Astronomy

Feb. 09, 2016 Rise Set
Actual Time
Civil Twilight
Nautical Twilight
Astronomical Twilight
Moon
Length of Visible Light
Length of Day
Tomorrow will be .
, % of the Moon is Illuminated

Today's Extremes

State Highs State Lows

Community

WunderPhotos

Upload Photos

1,891,571 photos uploaded!

WunderBlog® & News

Nearby

Air Quality

  Air Quality AQ Index Pollutant
Not available.

Snow Depth

Station Depth Elevation

Earthquake Activity

City Distance Mag. Time & Date
Minimum magnitude displayed is 2.5.

Coastal Water Temperatures

Place Temperature

Stations

Nearby Weather Stations

Station Location Temp. Windchill Dew Point Humidity Wind Precip. Elev Updated Type
                   

Watches & Warnings

There are currently no watches in effect.